Historyczne dane pomiarowe

Dodano dane terminowe – wersja testowa.

Dane z okresu 1951-2019

Wersja bazy: 1.34 [2019-03-16, lista zmian], aktualizacja planowana na 2019-04-15

Dane meteo z obszaru Polski uzyskane na podstawie danych udostępnionych przez Instytut Meteorologii i Gospodarki Wodnej – Państwowy Instytut Badawczy.

 

Wybierz Datę:    

       

TemperaturaWilgotnośćZachmurzenieWiatrCiśnienieWidzialnośćZjawiska
 Data    tng td wb rh cc ccl cl cm ch dir g1 g2 mslp ppp      
1999-06-29 00:00:00 14.3--- 11.1 12.581wxwxwx2wx--1019.7 996.7 0.0---wx
1999-06-29 01:00:00 14.7--- 9.9 12.073wxwxwx2wx--1019.9 996.9----wx
1999-06-29 02:00:00 14.5--- 9.6 11.873wxwxwx2wx--1020.2 997.2----wx
1999-06-29 03:00:00 14.4--- 8.5 11.268wxwxwx2wx--1020.4 997.4----wx
1999-06-29 04:00:00 14.5--- 9.0 11.570wxwx1wx--1020.7 997.7----wx
1999-06-29 05:00:00 14.7--- 10.1 12.174wxwxwx1wx--1021.0 998.0----wx
1999-06-29 06:00:00 16.7--- 9.4 12.662wxwxwx2wx--1021.3 998.4 0.0---wx
1999-06-29 07:00:00 18.1--- 9.2 13.156wxwxwx1wx--1021.6 998.8----wx
1999-06-29 08:00:00 18.6--- 9.0 13.253wxwxwx2wx--1021.4 998.7----wx
1999-06-29 09:00:00 20.1--- 9.4 14.050wxwxwxwx2wx--1021.0 998.4----wx
1999-06-29 10:00:00 21.2--- 9.1 14.346wxwxwxwx2wx--1020.8 998.3----wx
1999-06-29 11:00:00 21.7--- 9.3 14.645wxwxwxwx2wx--1020.6 998.1----wx
1999-06-29 12:00:00 21.8--- 8.3 14.242wxwxwxwx3wx--1020.2 997.7 0.0---wx
1999-06-29 13:00:00 21.8--- 9.2 14.645wxwxwxwxwx1wx--1019.9 997.4----wx
1999-06-29 14:00:00 22.1--- 9.4 14.844wxwxwxwxwx2wx--1019.3 996.9----wx
1999-06-29 15:00:00 22.7--- 9.1 14.942wxwxwxwxwx2wx--1018.8 996.4----wx
1999-06-29 16:00:00 23.1--- 9.4 15.242wxwxwxwxwx2wx--1018.4 996.1----wx
1999-06-29 17:00:00 22.4--- 9.4 14.943wxwxwxwx2wx--1018.3 995.9----wx
1999-06-29 18:00:00 21.8--- 10.5 15.249wxwxwxwx1wx--1018.3 995.9 0.0---wx
1999-06-29 19:00:00 19.8--- 10.3 14.354wxwxwxwx1wx--1018.7 996.1----wx
1999-06-29 20:00:00 19.0--- 9.9 13.856wxwxwxwx1wx--1019.2 996.5----wx
1999-06-29 21:00:00 18.2--- 10.2 13.659wxwxwx2wx--1019.4 996.7----wx
1999-06-29 22:00:00 17.6--- 9.8 13.260wxwxwxwx2wx--1019.4 996.6----wx
1999-06-29 23:00:00 17.0--- 10.3 13.265wxwxwxwx2wx--1019.4 996.6----wx

 

Źródłem pochodzenia danych jest Instytut Meteorologii i Gospodarki Wodnej – Państwowy Instytut Badawczy. Dane Instytutu Meteorologii i Gospodarki Wodnej – Państwowego Instytutu Badawczego zostały przetworzone.

Dane źródłowe można odnaleźć na stronie https://dane.imgw.pl